createdAt,value
2022-12-01T00:01:30.388Z,1.90
2022-12-01T00:03:57.408Z,1.90
2022-12-01T00:06:24.428Z,1.90
2022-12-01T00:09:14.014Z,1.90
2022-12-01T00:11:43.564Z,1.90
2022-12-01T00:14:10.507Z,1.90
2022-12-01T00:16:37.507Z,1.90
2022-12-01T00:19:04.502Z,1.90
2022-12-01T00:21:31.529Z,1.80
2022-12-01T00:23:58.873Z,1.80
2022-12-01T00:26:27.128Z,1.80
2022-12-01T00:28:57.092Z,1.80
2022-12-01T00:31:24.522Z,1.80
2022-12-01T00:33:51.789Z,1.90
2022-12-01T00:36:18.850Z,1.90
2022-12-01T00:38:46.057Z,1.90
2022-12-01T00:41:13.035Z,1.90
2022-12-01T00:43:41.001Z,1.90
2022-12-01T00:46:08.019Z,2.00
2022-12-01T00:48:35.192Z,2.00
2022-12-01T00:51:02.285Z,1.90
2022-12-01T00:53:29.578Z,1.90
2022-12-01T00:55:56.824Z,1.90
2022-12-01T00:58:24.703Z,1.80
2022-12-01T01:01:00.037Z,1.80
2022-12-01T01:03:27.539Z,1.80
2022-12-01T01:05:54.501Z,1.80
2022-12-01T01:08:21.493Z,1.80
2022-12-01T01:10:49.019Z,1.80
2022-12-01T01:13:16.130Z,1.80
2022-12-01T01:15:43.078Z,1.80
2022-12-01T01:18:12.045Z,1.80
2022-12-01T01:20:39.273Z,1.80
2022-12-01T01:23:06.423Z,1.80
2022-12-01T01:25:33.574Z,1.80
2022-12-01T01:28:00.684Z,1.80
2022-12-01T01:30:27.819Z,1.80
2022-12-01T01:32:54.908Z,1.90
2022-12-01T01:35:22.037Z,1.90
2022-12-01T01:37:51.009Z,1.90
2022-12-01T01:40:18.696Z,1.90
2022-12-01T01:42:46.160Z,1.90
2022-12-01T01:45:26.220Z,1.90
2022-12-01T01:47:55.111Z,2.00
2022-12-01T01:50:26.606Z,2.00
2022-12-01T01:53:01.307Z,2.00
2022-12-01T01:55:31.975Z,2.00
2022-12-01T01:57:59.498Z,2.00
2022-12-01T02:00:26.724Z,2.10
2022-12-01T02:02:53.920Z,2.10
2022-12-01T02:05:33.901Z,2.10
2022-12-01T02:08:02.774Z,2.10
2022-12-01T02:11:26.659Z,2.10
2022-12-01T02:14:06.653Z,2.10
2022-12-01T02:16:44.032Z,2.10
2022-12-01T02:19:37.492Z,2.00
2022-12-01T02:22:19.608Z,2.00
2022-12-01T02:24:52.230Z,2.00
2022-12-01T02:27:37.910Z,2.00
2022-12-01T02:30:09.563Z,2.00
2022-12-01T02:32:57.728Z,2.00
2022-12-01T02:35:33.538Z,2.00
2022-12-01T02:38:32.928Z,2.10
2022-12-01T02:41:22.754Z,2.10
2022-12-01T02:44:13.454Z,2.00
2022-12-01T02:46:55.658Z,2.10
2022-12-01T02:49:36.943Z,2.00
2022-12-01T02:52:06.505Z,2.00
2022-12-01T02:54:34.581Z,2.00
2022-12-01T02:57:01.620Z,2.00
2022-12-01T02:59:28.572Z,2.00
2022-12-01T03:02:13.517Z,2.00
2022-12-01T03:05:05.169Z,2.00
2022-12-01T03:08:05.694Z,2.00
2022-12-01T03:10:51.352Z,2.00
2022-12-01T03:13:42.041Z,2.00
2022-12-01T03:16:33.813Z,2.00
2022-12-01T03:19:08.812Z,1.90
2022-12-01T03:21:43.101Z,1.90
2022-12-01T03:24:22.104Z,2.00
2022-12-01T03:26:55.614Z,2.00
2022-12-01T03:29:32.016Z,2.00
2022-12-01T03:32:05.888Z,2.10
2022-12-01T03:34:50.117Z,2.00
2022-12-01T03:37:32.285Z,2.00
2022-12-01T03:40:01.216Z,2.00
2022-12-01T03:42:37.646Z,2.00
2022-12-01T03:45:12.029Z,2.00
2022-12-01T03:47:40.568Z,2.00
2022-12-01T03:50:13.369Z,2.10
2022-12-01T03:53:04.635Z,2.10
2022-12-01T03:55:38.033Z,2.10
2022-12-01T03:58:14.386Z,2.00
2022-12-01T04:00:41.890Z,2.00
2022-12-01T04:03:16.434Z,2.00
2022-12-01T04:05:43.459Z,2.00
2022-12-01T04:08:10.429Z,2.00
2022-12-01T04:10:37.420Z,2.00
2022-12-01T04:13:04.475Z,2.00
2022-12-01T04:15:31.450Z,1.90
2022-12-01T04:17:58.410Z,1.90
2022-12-01T04:20:25.377Z,2.00
2022-12-01T04:22:52.403Z,2.10
2022-12-01T04:25:19.327Z,2.10
2022-12-01T04:27:46.305Z,2.00
2022-12-01T04:30:13.533Z,2.10
2022-12-01T04:32:42.405Z,2.10
2022-12-01T04:35:11.703Z,2.00
2022-12-01T04:37:39.661Z,2.00
2022-12-01T04:40:07.293Z,2.10
2022-12-01T04:42:34.383Z,2.10
2022-12-01T04:45:01.323Z,2.10
2022-12-01T04:47:28.282Z,2.10
2022-12-01T04:49:55.243Z,2.10
2022-12-01T04:52:22.196Z,2.20
2022-12-01T04:54:49.136Z,2.20
2022-12-01T04:57:16.085Z,2.20
2022-12-01T04:59:43.038Z,2.20
2022-12-01T05:02:10.113Z,2.20
2022-12-01T05:04:38.887Z,2.20
2022-12-01T05:07:06.037Z,2.20
2022-12-01T05:09:33.175Z,2.20
2022-12-01T05:12:00.138Z,2.20
2022-12-01T05:14:28.205Z,2.20
2022-12-01T05:16:56.106Z,2.20
2022-12-01T05:19:41.688Z,2.20
2022-12-01T05:22:08.735Z,2.20
2022-12-01T05:24:35.760Z,2.20
2022-12-01T05:27:02.781Z,2.20
2022-12-01T05:29:29.720Z,2.20
2022-12-01T05:31:56.817Z,2.20
2022-12-01T05:34:23.725Z,2.20
2022-12-01T05:36:50.769Z,2.20
2022-12-01T05:39:17.676Z,2.20
2022-12-01T05:41:44.678Z,2.20
2022-12-01T05:44:11.583Z,2.20
2022-12-01T05:46:38.590Z,2.20
2022-12-01T05:49:06.578Z,2.20
2022-12-01T05:51:33.545Z,2.20
2022-12-01T05:54:00.975Z,2.10
2022-12-01T05:56:28.217Z,2.20
2022-12-01T05:58:55.225Z,2.20
2022-12-01T06:01:22.729Z,2.20
2022-12-01T06:03:49.753Z,2.20
2022-12-01T06:06:17.024Z,2.20
2022-12-01T06:08:43.928Z,2.20
2022-12-01T06:11:11.498Z,2.20
2022-12-01T06:13:38.696Z,2.20
2022-12-01T06:16:06.854Z,2.20
2022-12-01T06:18:37.332Z,2.10
2022-12-01T06:21:06.286Z,2.10
2022-12-01T06:23:34.026Z,2.10
2022-12-01T06:26:00.980Z,2.10
2022-12-01T06:28:28.090Z,2.30
2022-12-01T06:31:01.073Z,2.20
2022-12-01T06:33:30.329Z,2.20
2022-12-01T06:36:02.042Z,2.20
2022-12-01T06:38:34.471Z,2.20
2022-12-01T06:41:01.608Z,2.10
2022-12-01T06:43:29.007Z,2.10
2022-12-01T06:46:01.327Z,2.20
2022-12-01T06:48:29.733Z,2.20
2022-12-01T06:51:01.404Z,2.20
2022-12-01T06:53:29.785Z,2.20
2022-12-01T06:56:01.277Z,2.20
2022-12-01T06:58:28.943Z,2.30
2022-12-01T07:00:58.865Z,2.30
2022-12-01T07:03:26.250Z,2.30
2022-12-01T07:06:00.620Z,2.30
2022-12-01T07:08:29.087Z,2.40
2022-12-01T07:11:02.988Z,2.30
2022-12-01T07:13:33.786Z,2.30
2022-12-01T07:16:03.348Z,2.30
2022-12-01T07:18:31.536Z,2.30
2022-12-01T07:21:06.056Z,2.30
2022-12-01T07:23:33.550Z,2.30
2022-12-01T07:26:10.158Z,2.30
2022-12-01T07:28:37.147Z,2.30
2022-12-01T07:31:19.253Z,2.30
2022-12-01T07:33:46.360Z,2.40
2022-12-01T07:36:14.583Z,2.40
2022-12-01T07:38:42.088Z,2.40
2022-12-01T07:41:14.714Z,2.30
2022-12-01T07:43:42.355Z,2.40
2022-12-01T07:46:17.235Z,2.40
2022-12-01T07:48:47.752Z,2.40
2022-12-01T07:51:16.836Z,2.50
2022-12-01T07:53:45.392Z,2.50
2022-12-01T07:56:12.677Z,2.50
2022-12-01T07:58:39.999Z,2.60
2022-12-01T08:01:14.853Z,2.60
2022-12-01T08:03:42.555Z,2.60
2022-12-01T08:06:10.329Z,2.60
2022-12-01T08:08:39.233Z,2.70
2022-12-01T08:11:11.668Z,2.70
2022-12-01T08:13:39.169Z,2.80
2022-12-01T08:16:08.039Z,2.80
2022-12-01T08:18:36.173Z,2.80
2022-12-01T08:21:04.727Z,2.80
2022-12-01T08:23:31.684Z,2.80
2022-12-01T08:26:03.185Z,2.80
2022-12-01T08:28:30.533Z,2.80
2022-12-01T08:30:57.727Z,2.80
2022-12-01T08:33:24.839Z,2.90
2022-12-01T08:35:51.930Z,2.90
2022-12-01T08:38:18.893Z,3.00
2022-12-01T08:40:45.977Z,3.00
2022-12-01T08:43:23.159Z,3.10
2022-12-01T08:46:01.240Z,3.00
2022-12-01T08:48:31.289Z,3.00
2022-12-01T08:51:08.532Z,3.10
2022-12-01T08:53:45.161Z,3.20
2022-12-01T08:56:20.154Z,3.30
2022-12-01T08:58:47.332Z,3.30
2022-12-01T09:01:17.316Z,3.30
2022-12-01T09:03:44.829Z,3.40
2022-12-01T09:06:14.921Z,3.50
2022-12-01T09:08:42.071Z,3.60
2022-12-01T09:11:16.875Z,3.70
2022-12-01T09:13:46.032Z,3.80
2022-12-01T09:16:17.772Z,4.00
2022-12-01T09:18:47.893Z,4.10
2022-12-01T09:21:24.040Z,4.20
2022-12-01T09:23:51.429Z,4.00
2022-12-01T09:26:19.868Z,3.90
2022-12-01T09:28:53.302Z,3.80
2022-12-01T09:31:20.975Z,3.80
2022-12-01T09:33:47.981Z,3.60
2022-12-01T09:36:14.987Z,3.60
2022-12-01T09:38:42.057Z,3.60
2022-12-01T09:41:19.286Z,3.60
2022-12-01T09:43:58.674Z,3.70
2022-12-01T09:46:32.300Z,3.80
2022-12-01T09:49:02.794Z,3.90
2022-12-01T09:51:31.208Z,4.00
2022-12-01T09:53:59.959Z,4.00
2022-12-01T09:56:32.192Z,4.00
2022-12-01T09:59:02.923Z,4.00
2022-12-01T10:01:41.813Z,4.10
2022-12-01T10:04:15.201Z,4.10
2022-12-01T10:06:55.129Z,4.10
2022-12-01T10:09:35.009Z,4.10
2022-12-01T10:12:12.730Z,4.20
2022-12-01T10:14:39.696Z,4.30
2022-12-01T10:17:31.161Z,4.40
2022-12-01T10:20:24.168Z,4.50
2022-12-01T10:23:08.977Z,4.50
2022-12-01T10:25:56.212Z,4.60
2022-12-01T10:28:49.332Z,4.80
2022-12-01T10:31:30.815Z,4.90
2022-12-01T10:34:11.308Z,5.00
2022-12-01T10:36:38.306Z,5.20
2022-12-01T10:39:09.737Z,5.30
2022-12-01T10:41:39.277Z,5.20
2022-12-01T10:44:08.015Z,5.10
2022-12-01T10:46:54.128Z,5.10
2022-12-01T10:49:26.650Z,5.20
2022-12-01T10:51:57.284Z,5.20
2022-12-01T10:54:42.230Z,5.30
2022-12-01T10:57:17.653Z,5.10
2022-12-01T11:00:05.114Z,4.90
2022-12-01T11:02:33.694Z,4.90
2022-12-01T11:05:05.073Z,4.90
2022-12-01T11:07:45.216Z,4.90
2022-12-01T11:10:31.869Z,4.90
2022-12-01T11:13:01.541Z,5.00
2022-12-01T11:15:34.730Z,4.90
2022-12-01T11:18:06.585Z,5.10
2022-12-01T11:20:36.912Z,5.20
2022-12-01T11:23:10.171Z,5.40
2022-12-01T11:25:37.331Z,5.50
2022-12-01T11:28:05.383Z,5.60
2022-12-01T11:30:33.554Z,5.70
2022-12-01T11:33:04.797Z,5.60
2022-12-01T11:35:37.950Z,5.50
2022-12-01T11:38:29.192Z,5.50
2022-12-01T11:40:56.586Z,5.30
2022-12-01T11:43:36.608Z,5.20
2022-12-01T11:46:09.450Z,5.30
2022-12-01T11:48:37.134Z,5.40
2022-12-01T11:51:22.603Z,5.30
2022-12-01T11:53:49.539Z,5.30
2022-12-01T11:56:25.676Z,5.40
2022-12-01T11:59:02.468Z,5.50
2022-12-01T12:01:55.132Z,5.70
2022-12-01T12:04:43.607Z,5.90
2022-12-01T12:07:23.210Z,6.00
2022-12-01T12:10:11.730Z,6.00
2022-12-01T12:13:06.678Z,6.00
2022-12-01T12:15:39.300Z,6.00
2022-12-01T12:18:24.624Z,6.00
2022-12-01T12:21:03.329Z,6.10
2022-12-01T12:23:49.102Z,6.20
2022-12-01T12:26:24.930Z,6.10
2022-12-01T12:29:29.265Z,6.10
2022-12-01T12:32:08.106Z,6.10
2022-12-01T12:35:01.961Z,5.90
2022-12-01T12:37:47.635Z,5.90
2022-12-01T12:40:35.735Z,5.90
2022-12-01T12:43:20.897Z,5.80
2022-12-01T12:46:05.425Z,5.80
2022-12-01T12:51:40.908Z,5.70
2022-12-01T12:54:34.955Z,5.80
2022-12-01T12:57:25.334Z,5.80
2022-12-01T12:59:56.354Z,5.80
2022-12-01T13:02:31.513Z,5.80
2022-12-01T13:05:20.832Z,5.80
2022-12-01T13:07:51.838Z,5.80
2022-12-01T13:10:22.903Z,5.90
2022-12-01T13:12:59.645Z,5.90
2022-12-01T13:15:29.595Z,5.80
2022-12-01T13:18:09.885Z,5.70
2022-12-01T13:20:38.293Z,5.70
2022-12-01T13:23:08.491Z,5.60
2022-12-01T13:25:39.678Z,5.60
2022-12-01T13:28:17.466Z,5.40
2022-12-01T13:30:58.760Z,5.40
2022-12-01T13:33:25.968Z,5.40
2022-12-01T13:36:21.333Z,5.30
2022-12-01T13:38:41.927Z,5.30
2022-12-01T13:41:39.661Z,5.20
2022-12-01T13:44:20.686Z,5.10
2022-12-01T13:46:47.728Z,5.10
2022-12-01T13:49:37.228Z,5.00
2022-12-01T13:52:22.654Z,5.00
2022-12-01T13:55:27.116Z,5.00
2022-12-01T13:57:57.086Z,4.90
2022-12-01T14:00:32.534Z,4.80
2022-12-01T14:03:19.563Z,4.80
2022-12-01T14:05:52.577Z,4.80
2022-12-01T14:08:30.953Z,4.80
2022-12-01T14:11:02.217Z,4.80
2022-12-01T14:13:30.298Z,4.80
2022-12-01T14:16:02.659Z,4.80
2022-12-01T14:18:33.251Z,4.80
2022-12-01T14:21:02.214Z,4.80
2022-12-01T14:23:34.780Z,4.80
2022-12-01T14:26:11.637Z,4.80
2022-12-01T14:29:02.592Z,4.80
2022-12-01T14:31:35.751Z,4.80
2022-12-01T14:34:18.826Z,4.70
2022-12-01T14:37:14.529Z,4.70
2022-12-01T14:39:45.797Z,4.70
2022-12-01T14:42:35.692Z,4.60
2022-12-01T14:45:05.658Z,4.60
2022-12-01T14:47:59.895Z,4.60
2022-12-01T14:50:55.360Z,4.50
2022-12-01T14:53:27.212Z,4.50
2022-12-01T14:55:57.524Z,4.50
2022-12-01T14:58:27.945Z,4.50
2022-12-01T15:01:12.748Z,4.50
2022-12-01T15:03:43.690Z,4.40
2022-12-01T15:06:16.776Z,4.40
2022-12-01T15:08:58.459Z,4.50
2022-12-01T15:11:31.528Z,4.40
2022-12-01T15:13:59.077Z,4.40
2022-12-01T15:16:29.514Z,4.40
2022-12-01T15:18:59.605Z,4.40
2022-12-01T15:21:32.086Z,4.40
2022-12-01T15:24:02.195Z,4.30
2022-12-01T15:26:37.449Z,4.30
2022-12-01T15:29:19.310Z,4.30
2022-12-01T15:31:53.521Z,4.30
2022-12-01T15:34:33.562Z,4.30
2022-12-01T15:37:04.715Z,4.30
2022-12-01T15:39:39.373Z,4.20
2022-12-01T15:42:06.681Z,4.20
2022-12-01T15:44:36.169Z,4.30
2022-12-01T15:47:32.921Z,4.30
2022-12-01T15:49:59.945Z,4.30
2022-12-01T15:52:27.042Z,4.20
2022-12-01T15:54:54.285Z,4.20
2022-12-01T15:57:22.625Z,4.20
2022-12-01T15:59:56.014Z,4.20
2022-12-01T16:02:32.150Z,4.20
2022-12-01T16:05:17.470Z,4.10
2022-12-01T16:10:36.881Z,4.10
2022-12-01T16:13:37.870Z,4.10
2022-12-01T16:16:36.645Z,4.10
2022-12-01T16:19:09.685Z,4.10
2022-12-01T16:21:56.811Z,4.10
2022-12-01T16:24:36.476Z,4.10
2022-12-01T16:27:05.043Z,4.10
2022-12-01T16:29:49.216Z,4.00
2022-12-01T16:32:40.984Z,4.00
2022-12-01T16:35:24.422Z,4.10
2022-12-01T16:37:51.385Z,4.10
2022-12-01T16:40:18.621Z,4.10
2022-12-01T16:42:46.582Z,4.10
2022-12-01T16:45:14.999Z,4.10
2022-12-01T16:47:44.805Z,4.10
2022-12-01T16:50:19.364Z,4.10
2022-12-01T16:52:46.780Z,4.10
2022-12-01T16:55:35.255Z,4.10
2022-12-01T16:58:02.499Z,4.10
2022-12-01T17:00:29.773Z,4.10
2022-12-01T17:02:58.011Z,4.10
2022-12-01T17:05:25.104Z,4.10
2022-12-01T17:07:52.067Z,4.00
2022-12-01T17:10:19.624Z,4.10
2022-12-01T17:12:46.907Z,4.10
2022-12-01T17:15:14.318Z,4.10
2022-12-01T17:17:41.576Z,4.10
2022-12-01T17:20:09.588Z,4.00
2022-12-01T17:22:36.969Z,4.10
2022-12-01T17:25:05.192Z,4.00
2022-12-01T17:27:32.886Z,4.00
2022-12-01T17:29:59.940Z,4.00
2022-12-01T17:32:27.651Z,4.00
2022-12-01T17:34:54.800Z,4.00
2022-12-01T17:37:22.199Z,4.00
2022-12-01T17:39:50.392Z,4.00
2022-12-01T17:42:17.555Z,4.00
2022-12-01T17:44:44.533Z,4.10
2022-12-01T17:47:12.503Z,4.00
2022-12-01T17:49:39.513Z,4.00
2022-12-01T17:52:07.214Z,4.00
2022-12-01T17:54:34.361Z,4.10
2022-12-01T17:57:01.313Z,4.00
2022-12-01T17:59:28.306Z,4.00
2022-12-01T18:01:55.486Z,4.10
2022-12-01T18:04:22.500Z,4.00
2022-12-01T18:06:54.066Z,4.00
2022-12-01T18:09:22.011Z,4.00
2022-12-01T18:11:49.546Z,4.00
2022-12-01T18:14:18.173Z,4.00
2022-12-01T18:16:45.456Z,4.00
2022-12-01T18:19:12.846Z,4.00
2022-12-01T18:21:40.552Z,4.00
2022-12-01T18:24:11.492Z,4.00
2022-12-01T18:26:40.231Z,4.10
2022-12-01T18:29:12.886Z,4.00
2022-12-01T18:31:40.425Z,4.00
2022-12-01T18:34:09.135Z,4.00
2022-12-01T18:36:38.256Z,4.00
2022-12-01T18:39:07.803Z,4.00
2022-12-01T18:41:35.777Z,4.00
2022-12-01T18:44:02.963Z,4.00
2022-12-01T18:46:30.183Z,4.00
2022-12-01T18:49:02.154Z,4.00
2022-12-01T18:51:35.705Z,3.90
2022-12-01T18:54:04.195Z,3.90
2022-12-01T18:56:32.124Z,3.90
2022-12-01T18:59:02.175Z,3.90
2022-12-01T19:01:37.961Z,3.90
2022-12-01T19:04:06.930Z,3.90
2022-12-01T19:06:35.735Z,3.90
2022-12-01T19:09:05.123Z,3.90
2022-12-01T19:11:33.264Z,3.90
2022-12-01T19:14:00.230Z,3.90
2022-12-01T19:16:27.518Z,3.90
2022-12-01T19:18:54.497Z,3.90
2022-12-01T19:21:21.585Z,3.90
2022-12-01T19:23:49.603Z,3.90
2022-12-01T19:26:19.213Z,3.80
2022-12-01T19:28:47.403Z,3.90
2022-12-01T19:31:17.922Z,3.80
2022-12-01T19:33:45.030Z,3.80
2022-12-01T19:36:17.609Z,3.80
2022-12-01T19:38:45.187Z,3.80
2022-12-01T19:41:12.825Z,3.80
2022-12-01T19:43:39.866Z,3.80
2022-12-01T19:46:16.902Z,3.80
2022-12-01T19:48:44.168Z,3.80
2022-12-01T19:51:19.678Z,3.80
2022-12-01T19:53:47.133Z,3.80
2022-12-01T19:56:14.375Z,3.80
2022-12-01T19:58:41.347Z,3.80
2022-12-01T20:01:11.395Z,3.80
2022-12-01T20:03:40.515Z,3.80
2022-12-01T20:06:10.166Z,3.80
2022-12-01T20:08:37.674Z,3.80
2022-12-01T20:11:05.758Z,3.80
2022-12-01T20:13:34.462Z,3.80
2022-12-01T20:16:22.062Z,3.80
2022-12-01T20:18:50.224Z,3.80
2022-12-01T20:21:29.262Z,3.80
2022-12-01T20:24:04.689Z,3.80
2022-12-01T20:26:37.751Z,3.90
2022-12-01T20:29:08.320Z,3.80
2022-12-01T20:31:36.043Z,3.90
2022-12-01T20:34:07.074Z,3.90
2022-12-01T20:36:34.846Z,4.00
2022-12-01T20:39:02.015Z,4.00
2022-12-01T20:41:28.990Z,4.00
2022-12-01T20:43:55.917Z,3.90
2022-12-01T20:46:23.210Z,4.00
2022-12-01T20:48:50.320Z,4.00
2022-12-01T20:51:17.343Z,4.00
2022-12-01T20:54:05.462Z,3.90
2022-12-01T20:56:32.116Z,4.00
2022-12-01T20:58:59.398Z,3.90
2022-12-01T21:01:27.123Z,3.90
2022-12-01T21:03:54.441Z,3.90
2022-12-01T21:06:22.059Z,3.90
2022-12-01T21:08:50.699Z,3.90
2022-12-01T21:11:44.990Z,3.90
2022-12-01T21:14:18.658Z,3.90
2022-12-01T21:16:49.255Z,3.90
2022-12-01T21:19:26.042Z,3.90
2022-12-01T21:21:52.999Z,3.90
2022-12-01T21:24:22.395Z,3.90
2022-12-01T21:27:16.308Z,3.90
2022-12-01T21:29:48.383Z,3.90
2022-12-01T21:32:15.333Z,3.80
2022-12-01T21:34:43.446Z,3.80
2022-12-01T21:37:24.593Z,3.80
2022-12-01T21:39:53.367Z,3.80
2022-12-01T21:42:22.994Z,3.80
2022-12-01T21:44:50.877Z,3.80
2022-12-01T21:47:27.117Z,3.80
2022-12-01T21:49:57.273Z,3.80
2022-12-01T21:52:39.030Z,3.80
2022-12-01T21:55:15.390Z,3.80
2022-12-01T21:57:44.217Z,3.70
2022-12-01T22:00:28.221Z,3.70
2022-12-01T22:03:16.214Z,3.80
2022-12-01T22:06:13.652Z,3.80
2022-12-01T22:08:43.213Z,3.80
2022-12-01T22:11:13.340Z,3.80
2022-12-01T22:14:30.821Z,3.80
2022-12-01T22:17:01.783Z,3.80
2022-12-01T22:19:31.469Z,3.70
2022-12-01T22:22:14.391Z,3.80
2022-12-01T22:24:45.441Z,3.80
2022-12-01T22:27:31.108Z,3.80
2022-12-01T22:30:02.449Z,3.80
2022-12-01T22:32:36.526Z,3.80
2022-12-01T22:35:45.883Z,3.90
2022-12-01T22:38:35.958Z,3.90
2022-12-01T22:41:06.071Z,3.80
2022-12-01T22:43:40.981Z,3.80
2022-12-01T22:46:28.052Z,3.80
2022-12-01T22:49:13.761Z,3.80
2022-12-01T22:51:48.365Z,3.80
2022-12-01T22:54:15.237Z,3.80
2022-12-01T22:57:03.059Z,3.70
2022-12-01T22:59:35.093Z,3.70
2022-12-01T23:02:13.511Z,3.70
2022-12-01T23:04:45.095Z,3.70
2022-12-01T23:07:29.321Z,3.70
2022-12-01T23:10:03.411Z,3.70
2022-12-01T23:12:32.508Z,3.70
2022-12-01T23:15:14.764Z,3.70
2022-12-01T23:17:41.766Z,3.70
2022-12-01T23:20:14.442Z,3.80
2022-12-01T23:22:41.439Z,3.70
2022-12-01T23:25:19.770Z,3.70
2022-12-01T23:27:49.638Z,3.80
2022-12-01T23:30:18.512Z,3.70
2022-12-01T23:32:51.654Z,3.70
2022-12-01T23:35:19.022Z,3.70
2022-12-01T23:37:48.241Z,3.70
2022-12-01T23:40:25.595Z,3.70
2022-12-01T23:42:52.637Z,3.70
2022-12-01T23:45:27.364Z,3.70
2022-12-01T23:47:56.723Z,3.70
2022-12-01T23:50:26.566Z,3.80
2022-12-01T23:52:54.014Z,3.70
2022-12-01T23:55:30.024Z,3.70
2022-12-01T23:57:57.953Z,3.80
